• Join FlightAware (Why Join?)
  • Login
  • US Flag 
05:42PM EDT


 

Airport Tracker/Info


-or-


 

Live Flight TrackerFlight Track Log ✈ SWA3685 ✈ 23-Apr-2013 ✈ KPHX - KABQ

Flight Track Log - Related Links

Times and Time Zones

All times are in EDT time to prevent confusion due to time zone crossing. See the SWA3685 flight status page for this flight to view local times or setup timezone preferences in your user account.

Time Position Orientation Groundspeed Altitude Reporting Facility
EDT Latitude Longitude Course Direction KTS MPH feet Rate Location/Type
09:32AM 33.4333 -112.0000 90° East 145 167 1,800  Level Phoenix TRACON
09:33AM 33.4333 -111.9333 90° East 199 229 3,200 1,620 Climbing Phoenix TRACON
09:34AM 33.4342 -111.8872 89° East 224 258 4,700 2,400 Climbing Albuquerque Center
09:35AM 33.4747 -111.7872 64° Northeast 289 333 7,700 3,180 Climbing Albuquerque Center
09:36AM 33.5183 -111.7011 59° Northeast 304 350 11,200 2,880 Climbing Albuquerque Center
09:37AM 33.5644 -111.6000 61° Northeast 352 405 13,600 2,700 Climbing Albuquerque Center
09:38AM 33.6069 -111.4856 66° East 376 433 16,800 2,820 Climbing Albuquerque Center
09:39AM 33.6519 -111.3658 66° East 394 453 19,400 2,580 Climbing Albuquerque Center
09:40AM 33.6997 -111.2364 66° East 425 489 22,100 2,460 Climbing Albuquerque Center
09:41AM 33.7458 -111.1019 68° East 438 504 24,500 2,280 Climbing Albuquerque Center
09:42AM 33.7853 -110.9572 72° East 454 522 26,800 2,400 Climbing Albuquerque Center
09:43AM 33.8261 -110.8119 71° East 460 529 29,400 2,520 Climbing Albuquerque Center
09:44AM 33.8739 -110.6428 71° East 451 519 32,000 1,560 Climbing Albuquerque Center
09:45AM 33.9136 -110.4964 72° East 456 525 32,600 1,020 Climbing Albuquerque Center
09:46AM 33.9581 -110.3361 71° East 484 557 34,100 1,440 Climbing Albuquerque Center
09:47AM 33.9997 -110.1808 72° East 490 564 35,600 1,200 Climbing Albuquerque Center
09:48AM 34.0417 -110.0325 71° East 497 572 36,600 660 Climbing Albuquerque Center
09:49AM 34.0897 -109.8558 72° East 498 573 37,000 180 Climbing Albuquerque Center
09:50AM 34.1306 -109.7008 72° East 503 579 37,000  Level Albuquerque Center
09:51AM 34.1781 -109.5250 72° East 499 574 37,000  Level Albuquerque Center
09:52AM 34.2147 -109.3925 71° East 492 566 37,000  Level Albuquerque Center
09:53AM 34.2553 -109.2344 73° East 492 566 37,000  Level Albuquerque Center
09:54AM 34.3042 -109.0492 72° East 492 566 37,000  Level Albuquerque Center
09:55AM 34.3436 -108.9000 72° East 490 564 37,000 -300 Level Albuquerque Center
09:56AM 34.3831 -108.7514 72° East 487 560 36,400 -1,740 Descending Albuquerque Center
09:57AM 34.4275 -108.5778 73° East 485 558 33,500 -2,760 Descending Albuquerque Center
09:58AM 34.4653 -108.4322 72° East 486 559 30,900 -2,460 Descending Albuquerque Center
09:59AM 34.5053 -108.2761 73° East 487 560 28,600 -2,220 Descending Albuquerque Center
10:00AM 34.5439 -108.1225 73° East 480 552 26,400 -2,160 Descending Albuquerque Center
10:01AM 34.5814 -107.9747 73° East 466 536 24,200 -2,040 Descending Albuquerque Center
10:02AM 34.6181 -107.8297 73° East 455 524 22,300 -1,980 Descending Albuquerque Center
10:03AM 34.6794 -107.6778 64° Northeast 427 491 20,200 -1,980 Descending Albuquerque Center
10:04AM 34.7319 -107.5539 63° Northeast 417 480 18,300 -1,860 Descending Albuquerque Center
10:05AM 34.7478 -107.5153 63° Northeast 411 473 17,800 -1,800 Descending Albuquerque Center
10:05AM 34.7681 -107.4717 60° Northeast 400 460 17,100 -1,740 Descending Albuquerque Center
10:05AM 34.7831 -107.4350 64° Northeast 404 465 16,500 -1,680 Descending Albuquerque Center
10:06AM 34.8322 -107.3197 63° Northeast 391 450 14,900 -1,500 Descending Albuquerque Center
10:07AM 34.8694 -107.2269 64° Northeast 350 403 13,900 -1,320 Descending Albuquerque Center
10:07AM 34.8772 -107.2125 57° Northeast 366 421 13,600 -1,620 Descending Albuquerque Center
10:08AM 34.8961 -107.1194 76° East 340 391 12,300 -1,500 Descending Albuquerque Center
10:08AM 34.8944 -107.1011 96° East 351 404 12,100 -1,500 Descending Albuquerque Center
10:09AM 34.8911 -107.0042 92° East 341 392 10,800 -1,500 Descending Albuquerque Center
10:10AM 34.8881 -106.9867 102° East 345 397 10,600 -1,020 Descending Albuquerque Center
10:10AM 34.8822 -106.8900 94° East 335 386 9,800 -900 Descending Albuquerque Center
10:11AM 34.8817 -106.8758 93° East 340 391 9,700 -840 Descending Albuquerque Center
10:11AM 34.9106 -106.8078 63° Northeast 279 321 9,000 -1,140 Descending Albuquerque Center
10:12AM 34.9333 -106.7986 18° North 299 344 8,600 -720 Descending Albuquerque Center
10:12AM 34.9778 -106.8011 357° North 220 253 8,300 -420 Descending Albuquerque Center
10:13AM 34.9958 -106.7953 15° North 251 289 8,200 -480 Descending Albuquerque Center
10:13AM 35.0242 -106.7736 32° Northeast 188 216 7,900 -900 Descending Albuquerque Center
10:14AM 35.0375 -106.7586 43° Northeast 208 239 7,300 -1,020 Descending Albuquerque Center
10:14AM 35.0453 -106.7242 75° East 162 186 6,900 -600 Descending Albuquerque Center
10:15AM 35.0456 -106.7031 89° East 181 208 6,700 -840 Descending Albuquerque Center
10:15AM 35.0431 -106.6625 94° East 152 175 6,000 -900 Descending Albuquerque Center
10:16AM 35.0442 -106.6508 83° East 167 192 5,800 -480 Descending Albuquerque Center
10:17AM 35.0433 -106.5925 91° East 160 184 5,400 -420 Descending Albuquerque Center